Time;durP1;ratioP1;P1;durP2;ratioP2;P2;SDS_P1;SDS_P2;PMS_P1;PMS_P2;Temp;Humidity;BMP_temperature;BMP_pressure;BME280_temperature;BME280_humidity;BME280_pressure;Samples;Min_cycle;Max_cycle;Signal;HPM_P1;HPM_P2
2023/01/20 00:02:03;;;;;;;322.93;146.50;;;;;;;;;;4908821;28;20184;-53
2023/01/20 00:04:29;;;;;;;382.33;163.93;;;;;;;;;;4916182;28;20224;-53
2023/01/20 00:06:55;;;;;;;307.87;133.63;;;;;;;;;;4912791;28;20228;-53
2023/01/20 00:09:21;;;;;;;396.47;173.33;;;;;;;;;;4903426;28;20220;-53
2023/01/20 00:11:47;;;;;;;392.43;175.30;;;;;;;;;;4905819;28;20235;-53
2023/01/20 00:14:13;;;;;;;397.67;170.27;;;;;;;;;;4908913;28;20245;-54
2023/01/20 00:16:39;;;;;;;280.20;122.23;;;;;;;;;;4908968;28;20303;-54
2023/01/20 00:19:05;;;;;;;300.00;133.57;;;;;;;;;;4902769;28;20307;-53
2023/01/20 00:21:31;;;;;;;364.00;159.97;;;;;;;;;;4901882;28;20234;-54
2023/01/20 00:23:57;;;;;;;320.07;134.97;;;;;;;;;;4908586;28;20753;-54
2023/01/20 00:26:24;;;;;;;409.33;179.97;;;;;;;;;;4902656;28;20194;-54
2023/01/20 00:28:50;;;;;;;315.00;137.83;;;;;;;;;;4906911;28;20252;-54
2023/01/20 00:31:17;;;;;;;291.97;133.10;;;;;;;;;;4908545;28;20219;-54
2023/01/20 00:33:44;;;;;;;284.93;127.80;;;;;;;;;;4911449;28;20223;-54
2023/01/20 00:36:10;;;;;;;368.03;150.17;;;;;;;;;;4910944;28;20236;-54
2023/01/20 00:38:36;;;;;;;370.00;150.57;;;;;;;;;;4906813;28;20204;-54
2023/01/20 00:41:02;;;;;;;357.13;152.70;;;;;;;;;;4911921;28;20207;-54
2023/01/20 00:43:28;;;;;;;378.83;163.10;;;;;;;;;;4907178;28;20243;-54
2023/01/20 00:45:54;;;;;;;304.50;132.40;;;;;;;;;;4907239;28;20321;-54
2023/01/20 00:48:20;;;;;;;358.90;159.80;;;;;;;;;;4908380;28;20582;-54
2023/01/20 00:50:46;;;;;;;312.93;136.63;;;;;;;;;;4900973;28;20223;-54
2023/01/20 00:53:12;;;;;;;352.17;170.60;;;;;;;;;;4929502;23;20295;-51
2023/01/20 00:55:38;;;;;;;406.10;199.43;;;;;;;;;;4957977;28;20482;-51
2023/01/20 00:58:04;;;;;;;332.03;170.53;;;;;;;;;;4952935;28;20390;-50
2023/01/20 01:00:30;;;;;;;364.23;179.40;;;;;;;;;;4955951;28;20272;-50
2023/01/20 01:02:56;;;;;;;378.33;183.93;;;;;;;;;;4958477;28;20329;-51
2023/01/20 01:05:22;;;;;;;376.63;183.10;;;;;;;;;;4978812;28;20601;-50
2023/01/20 01:07:48;;;;;;;398.23;194.27;;;;;;;;;;4973900;28;20235;-50
2023/01/20 01:10:14;;;;;;;349.63;174.57;;;;;;;;;;4969213;28;20663;-50
2023/01/20 01:12:40;;;;;;;313.50;148.53;;;;;;;;;;4977605;28;20274;-51
2023/01/20 01:15:07;;;;;;;340.40;169.73;;;;;;;;;;4968229;28;20221;-50
2023/01/20 01:17:33;;;;;;;395.30;188.83;;;;;;;;;;4974794;28;20235;-48
2023/01/20 01:19:59;;;;;;;378.63;189.33;;;;;;;;;;4986590;28;20225;-52
2023/01/20 01:22:25;;;;;;;388.63;203.37;;;;;;;;;;4976967;28;20214;-53
2023/01/20 01:24:51;;;;;;;334.00;166.03;;;;;;;;;;4972902;28;20253;-52
2023/01/20 01:27:17;;;;;;;325.23;164.73;;;;;;;;;;4969723;28;20344;-50
2023/01/20 01:29:43;;;;;;;318.27;154.97;;;;;;;;;;4979251;28;20201;-50
2023/01/20 01:32:09;;;;;;;386.47;188.43;;;;;;;;;;4988384;28;20357;-50
2023/01/20 01:34:35;;;;;;;380.30;184.27;;;;;;;;;;4984741;28;20625;-50
2023/01/20 01:37:01;;;;;;;366.60;187.47;;;;;;;;;;4982777;28;20704;-50
2023/01/20 01:39:27;;;;;;;356.43;178.50;;;;;;;;;;4999020;28;20210;-50
2023/01/20 01:41:53;;;;;;;357.40;173.17;;;;;;;;;;4985956;28;20221;-51
2023/01/20 01:44:20;;;;;;;406.33;204.13;;;;;;;;;;4973840;28;20243;-51
2023/01/20 01:46:46;;;;;;;375.90;197.17;;;;;;;;;;4980219;28;20232;-51
2023/01/20 01:49:17;;;;;;;341.63;172.80;;;;;;;;;;4966856;28;20577;-51
2023/01/20 01:51:59;;;;;;;398.10;204.37;;;;;;;;;;4995199;28;20690;-50
2023/01/20 01:54:27;;;;;;;392.27;196.67;;;;;;;;;;4975557;28;20241;-51
2023/01/20 01:56:53;;;;;;;333.07;162.03;;;;;;;;;;4978980;28;21239;-51
2023/01/20 01:59:20;;;;;;;405.83;204.93;;;;;;;;;;4969125;28;20193;-50
2023/01/20 02:01:48;;;;;;;349.47;166.97;;;;;;;;;;4986148;28;20454;-51
2023/01/20 02:04:16;;;;;;;331.73;160.87;;;;;;;;;;4971176;28;20209;-51
2023/01/20 02:06:44;;;;;;;324.10;163.17;;;;;;;;;;4983361;28;20307;-50
2023/01/20 02:09:10;;;;;;;405.03;205.43;;;;;;;;;;4971257;28;20262;-51
2023/01/20 02:11:42;;;;;;;397.27;198.40;;;;;;;;;;4972623;28;20560;-51
2023/01/20 02:14:08;;;;;;;359.40;174.03;;;;;;;;;;4978584;28;20205;-50
2023/01/20 02:16:40;;;;;;;393.70;187.90;;;;;;;;;;4971884;28;20236;-51
2023/01/20 02:19:15;;;;;;;325.47;160.67;;;;;;;;;;4972977;28;20334;-50
2023/01/20 02:22:00;;;;;;;387.50;196.47;;;;;;;;;;4972563;28;20489;-50
2023/01/20 02:24:45;;;;;;;398.07;204.43;;;;;;;;;;4981463;28;20414;-53
2023/01/20 02:27:14;;;;;;;314.10;150.03;;;;;;;;;;4969617;28;20225;-53
2023/01/20 02:30:00;;;;;;;399.27;195.70;;;;;;;;;;4970934;28;20583;-50
2023/01/20 02:32:32;;;;;;;296.00;150.20;;;;;;;;;;4987516;28;20325;-50
2023/01/20 02:35:11;;;;;;;391.53;197.23;;;;;;;;;;4971702;28;20197;-51
2023/01/20 02:37:46;;;;;;;354.53;169.43;;;;;;;;;;4967774;28;20320;-51
2023/01/20 02:40:26;;;;;;;413.50;204.67;;;;;;;;;;4989891;28;20382;-51
2023/01/20 02:42:57;;;;;;;436.37;219.80;;;;;;;;;;4976699;28;20250;-50
2023/01/20 02:45:41;;;;;;;344.63;172.37;;;;;;;;;;4976970;28;20210;-52
2023/01/20 02:48:12;;;;;;;339.13;163.03;;;;;;;;;;4972887;28;20219;-53
2023/01/20 02:50:42;;;;;;;419.67;202.70;;;;;;;;;;4970772;28;20237;-52
2023/01/20 02:53:10;;;;;;;422.70;207.30;;;;;;;;;;4972995;28;20670;-50
2023/01/20 02:55:36;;;;;;;393.40;192.57;;;;;;;;;;4967994;28;20226;-50
2023/01/20 02:58:07;;;;;;;361.33;184.30;;;;;;;;;;4974861;28;20228;-52
2023/01/20 03:00:42;;;;;;;340.67;176.30;;;;;;;;;;4972930;28;20730;-52
2023/01/20 03:03:13;;;;;;;323.17;160.83;;;;;;;;;;4979245;28;20234;-52
2023/01/20 03:05:42;;;;;;;340.47;173.03;;;;;;;;;;4976143;28;20206;-53
2023/01/20 03:08:10;;;;;;;310.37;161.27;;;;;;;;;;4973405;28;20193;-52
2023/01/20 03:10:37;;;;;;;416.13;205.67;;;;;;;;;;4978233;28;21429;-52
2023/01/20 03:13:12;;;;;;;310.23;155.07;;;;;;;;;;4977141;28;20242;-53
2023/01/20 03:15:59;;;;;;;404.47;201.97;;;;;;;;;;4976159;28;20226;-50
2023/01/20 03:18:27;;;;;;;339.77;162.57;;;;;;;;;;4974837;28;20243;-50
2023/01/20 03:20:53;;;;;;;344.37;178.90;;;;;;;;;;4983920;28;20468;-51
2023/01/20 03:23:19;;;;;;;346.33;181.73;;;;;;;;;;4976818;28;20723;-50
2023/01/20 03:25:46;;;;;;;390.90;194.80;;;;;;;;;;4971848;28;20222;-51
2023/01/20 03:28:13;;;;;;;322.37;169.57;;;;;;;;;;4968315;28;21447;-51
2023/01/20 03:30:39;;;;;;;446.67;223.17;;;;;;;;;;4965236;28;20259;-52
2023/01/20 03:33:05;;;;;;;345.13;170.07;;;;;;;;;;4978007;28;21816;-51
2023/01/20 03:35:31;;;;;;;311.43;161.27;;;;;;;;;;4974028;28;20204;-51
2023/01/20 03:37:57;;;;;;;307.03;159.83;;;;;;;;;;4978332;28;20411;-51
2023/01/20 03:40:28;;;;;;;364.97;191.87;;;;;;;;;;4971930;28;20278;-51
2023/01/20 03:43:00;;;;;;;372.53;197.70;;;;;;;;;;4967368;28;20324;-51
2023/01/20 03:45:50;;;;;;;328.70;162.60;;;;;;;;;;4978165;28;20218;-51
2023/01/20 03:48:18;;;;;;;385.43;203.90;;;;;;;;;;4969004;28;20708;-51
2023/01/20 03:50:47;;;;;;;394.13;209.17;;;;;;;;;;4968303;28;20672;-51
2023/01/20 03:53:16;;;;;;;392.63;199.63;;;;;;;;;;4971343;28;20249;-51
2023/01/20 03:55:46;;;;;;;343.20;181.50;;;;;;;;;;4976511;28;20336;-50
2023/01/20 03:58:14;;;;;;;321.20;168.13;;;;;;;;;;4966746;28;20297;-51
2023/01/20 04:00:42;;;;;;;348.90;174.80;;;;;;;;;;4967330;28;20233;-51
2023/01/20 04:03:14;;;;;;;401.77;204.97;;;;;;;;;;4981019;28;20270;-51
2023/01/20 04:05:41;;;;;;;358.53;179.63;;;;;;;;;;4974637;28;21682;-50
2023/01/20 04:08:08;;;;;;;395.13;202.77;;;;;;;;;;4973787;28;20633;-50
2023/01/20 04:10:36;;;;;;;338.03;176.53;;;;;;;;;;4971321;28;20320;-50
2023/01/20 04:13:02;;;;;;;391.30;208.60;;;;;;;;;;4992944;28;20239;-51
2023/01/20 04:15:28;;;;;;;334.97;167.30;;;;;;;;;;4974544;28;20229;-50
2023/01/20 04:17:54;;;;;;;330.47;164.73;;;;;;;;;;4976623;28;20269;-50
2023/01/20 04:20:20;;;;;;;395.10;209.20;;;;;;;;;;4971029;28;20221;-50
2023/01/20 04:22:49;;;;;;;361.73;188.73;;;;;;;;;;4966389;28;20202;-50
2023/01/20 04:25:29;;;;;;;429.60;221.27;;;;;;;;;;4970220;28;20293;-51
2023/01/20 04:27:55;;;;;;;426.83;210.73;;;;;;;;;;4966000;28;20289;-50
2023/01/20 04:30:21;;;;;;;442.33;226.10;;;;;;;;;;4979942;28;21122;-50
2023/01/20 04:32:47;;;;;;;345.90;178.83;;;;;;;;;;5008510;28;20563;-50
2023/01/20 04:35:16;;;;;;;357.37;188.30;;;;;;;;;;4996967;28;20548;-50
2023/01/20 04:37:42;;;;;;;341.10;178.33;;;;;;;;;;4977865;28;20219;-50
2023/01/20 04:40:08;;;;;;;394.30;205.03;;;;;;;;;;4991735;28;20754;-50
2023/01/20 04:42:34;;;;;;;355.60;181.93;;;;;;;;;;4980245;28;20294;-50
2023/01/20 04:45:00;;;;;;;362.47;192.17;;;;;;;;;;4971302;28;20232;-50
2023/01/20 04:47:29;;;;;;;345.60;179.97;;;;;;;;;;4984237;28;20657;-51
2023/01/20 04:49:56;;;;;;;365.60;192.10;;;;;;;;;;4968304;28;20193;-51
2023/01/20 04:52:21;;;;;;;396.83;202.80;;;;;;;;;;4987029;28;21509;-50
2023/01/20 04:54:47;;;;;;;337.50;176.10;;;;;;;;;;4968793;28;20908;-50
2023/01/20 04:57:13;;;;;;;387.03;206.83;;;;;;;;;;4972790;28;20684;-50
2023/01/20 04:59:39;;;;;;;381.50;191.97;;;;;;;;;;4978930;28;20982;-52
2023/01/20 05:02:05;;;;;;;410.83;211.50;;;;;;;;;;4973768;28;20239;-49
2023/01/20 05:04:31;;;;;;;317.20;163.47;;;;;;;;;;4978662;28;20229;-52
2023/01/20 05:06:57;;;;;;;418.30;218.03;;;;;;;;;;4976467;28;21152;-52
2023/01/20 05:09:23;;;;;;;406.80;222.00;;;;;;;;;;4985646;28;20294;-50
2023/01/20 05:11:49;;;;;;;415.13;215.77;;;;;;;;;;4976725;28;20222;-50
2023/01/20 05:14:15;;;;;;;353.83;186.40;;;;;;;;;;4981355;28;20197;-50
2023/01/20 05:16:41;;;;;;;347.30;171.43;;;;;;;;;;4978851;28;20283;-49
2023/01/20 05:19:08;;;;;;;404.03;202.93;;;;;;;;;;4997870;28;20358;-50
2023/01/20 05:21:34;;;;;;;331.83;171.70;;;;;;;;;;4968357;28;20225;-50
2023/01/20 05:24:00;;;;;;;390.40;199.50;;;;;;;;;;4966480;28;20236;-52
2023/01/20 05:26:26;;;;;;;359.33;178.40;;;;;;;;;;4974847;28;20440;-50
2023/01/20 05:28:52;;;;;;;337.07;169.47;;;;;;;;;;4992361;28;20468;-50
2023/01/20 05:31:18;;;;;;;327.63;166.33;;;;;;;;;;4999505;28;20237;-50
2023/01/20 05:33:44;;;;;;;349.47;183.57;;;;;;;;;;5000786;28;21147;-50
2023/01/20 05:36:11;;;;;;;378.73;193.30;;;;;;;;;;5009536;28;20218;-50
2023/01/20 05:38:37;;;;;;;301.23;159.33;;;;;;;;;;5001564;28;20226;-50
2023/01/20 05:41:04;;;;;;;371.70;186.67;;;;;;;;;;5006546;28;20251;-51
2023/01/20 05:43:30;;;;;;;331.50;172.97;;;;;;;;;;5010381;28;20338;-51
2023/01/20 05:45:56;;;;;;;291.30;150.30;;;;;;;;;;4969310;28;20258;-51
2023/01/20 05:48:22;;;;;;;327.23;170.97;;;;;;;;;;4987305;28;20213;-51
2023/01/20 05:50:48;;;;;;;307.60;161.23;;;;;;;;;;4966617;28;20373;-51
2023/01/20 05:53:15;;;;;;;368.90;191.60;;;;;;;;;;4968557;28;20380;-51
2023/01/20 05:55:41;;;;;;;325.53;175.67;;;;;;;;;;4976959;28;20222;-51
2023/01/20 05:58:07;;;;;;;417.10;205.03;;;;;;;;;;4974616;28;20217;-51
2023/01/20 06:00:33;;;;;;;320.57;161.03;;;;;;;;;;4977088;28;20228;-50
2023/01/20 06:02:59;;;;;;;411.07;208.83;;;;;;;;;;4976862;28;22604;-51
2023/01/20 06:05:25;;;;;;;375.80;196.67;;;;;;;;;;4983334;28;20763;-51
2023/01/20 06:07:51;;;;;;;345.33;179.87;;;;;;;;;;4987919;28;20315;-51
2023/01/20 06:10:17;;;;;;;348.00;182.57;;;;;;;;;;4998187;28;20433;-50
2023/01/20 06:12:43;;;;;;;371.07;185.80;;;;;;;;;;4997996;28;20267;-50
2023/01/20 06:15:10;;;;;;;439.70;229.03;;;;;;;;;;4968353;28;20256;-51
2023/01/20 06:17:36;;;;;;;352.13;193.43;;;;;;;;;;5009498;28;20337;-51
2023/01/20 06:20:03;;;;;;;452.70;229.53;;;;;;;;;;4987361;28;20699;-51
2023/01/20 06:22:29;;;;;;;353.43;178.03;;;;;;;;;;4970240;28;20214;-51
2023/01/20 06:24:55;;;;;;;353.40;186.43;;;;;;;;;;4970179;28;20248;-51
2023/01/20 06:27:21;;;;;;;385.80;193.90;;;;;;;;;;4978885;28;20217;-50
2023/01/20 06:29:47;;;;;;;558.53;279.00;;;;;;;;;;4957168;28;20685;-49
2023/01/20 06:32:13;;;;;;;491.57;242.80;;;;;;;;;;4980206;28;20297;-50
2023/01/20 06:34:39;;;;;;;382.03;193.03;;;;;;;;;;4996325;28;20326;-49
2023/01/20 06:37:05;;;;;;;497.70;257.77;;;;;;;;;;5000491;28;20296;-49
2023/01/20 06:39:31;;;;;;;428.10;219.13;;;;;;;;;;4979548;28;20567;-50
2023/01/20 06:41:58;;;;;;;417.87;216.40;;;;;;;;;;4980585;28;20240;-50
2023/01/20 06:44:24;;;;;;;450.27;239.20;;;;;;;;;;4972977;28;20665;-49
2023/01/20 06:46:51;;;;;;;495.17;265.87;;;;;;;;;;4965517;28;20237;-49
2023/01/20 06:49:17;;;;;;;432.77;230.13;;;;;;;;;;4988010;28;20338;-51
2023/01/20 06:51:43;;;;;;;536.20;277.10;;;;;;;;;;4972777;28;20391;-49
2023/01/20 06:54:09;;;;;;;464.57;242.70;;;;;;;;;;4973765;28;21538;-50
2023/01/20 06:56:35;;;;;;;446.60;226.50;;;;;;;;;;4950130;28;20193;-50
2023/01/20 06:59:01;;;;;;;488.97;250.60;;;;;;;;;;4979340;28;20275;-51
2023/01/20 07:01:29;;;;;;;489.43;258.57;;;;;;;;;;4964823;28;20240;-51
2023/01/20 07:03:55;;;;;;;468.87;245.13;;;;;;;;;;4981026;28;20241;-50
2023/01/20 07:06:28;;;;;;;473.27;249.13;;;;;;;;;;5004326;28;20350;-51
2023/01/20 07:08:54;;;;;;;569.60;295.93;;;;;;;;;;4986095;28;20225;-50
2023/01/20 07:11:20;;;;;;;454.80;231.47;;;;;;;;;;4980258;28;20194;-50
2023/01/20 07:13:46;;;;;;;439.40;233.73;;;;;;;;;;4979663;28;20677;-50
2023/01/20 07:16:13;;;;;;;459.73;230.97;;;;;;;;;;4994742;28;20248;-50
2023/01/20 07:18:39;;;;;;;442.87;228.13;;;;;;;;;;4981554;28;20228;-50
2023/01/20 07:21:06;;;;;;;534.93;262.90;;;;;;;;;;4993369;28;20228;-48
2023/01/20 07:23:32;;;;;;;482.40;252.87;;;;;;;;;;4998055;28;20241;-49
2023/01/20 07:26:06;;;;;;;528.90;275.37;;;;;;;;;;4959735;28;20276;-48
2023/01/20 07:28:33;;;;;;;449.83;235.87;;;;;;;;;;4982602;28;20246;-50
2023/01/20 07:31:18;;;;;;;438.97;217.13;;;;;;;;;;5006825;28;20221;-50
2023/01/20 07:33:44;;;;;;;500.50;245.63;;;;;;;;;;4969769;28;20388;-50
2023/01/20 07:36:10;;;;;;;459.37;237.47;;;;;;;;;;4970920;28;20210;-50
2023/01/20 07:38:37;;;;;;;414.07;204.93;;;;;;;;;;5001067;28;20178;-52
2023/01/20 07:41:09;;;;;;;392.03;202.33;;;;;;;;;;4979107;28;20233;-50
2023/01/20 07:43:35;;;;;;;439.90;214.63;;;;;;;;;;4974884;28;20220;-50
2023/01/20 07:46:02;;;;;;;425.60;220.13;;;;;;;;;;4971276;28;20214;-51
2023/01/20 07:48:32;;;;;;;482.07;259.63;;;;;;;;;;4968080;28;20309;-50
2023/01/20 07:51:04;;;;;;;424.87;207.40;;;;;;;;;;4983187;28;20228;-52
2023/01/20 07:53:30;;;;;;;498.53;270.87;;;;;;;;;;4982895;28;20206;-50
2023/01/20 07:55:56;;;;;;;463.00;230.77;;;;;;;;;;4974390;28;20198;-50
2023/01/20 07:58:22;;;;;;;431.83;229.30;;;;;;;;;;4974790;28;20313;-50
2023/01/20 08:00:48;;;;;;;494.70;255.97;;;;;;;;;;4977761;28;20249;-50
2023/01/20 08:03:15;;;;;;;474.50;260.10;;;;;;;;;;4995507;28;20297;-51
2023/01/20 08:05:41;;;;;;;391.27;210.93;;;;;;;;;;5015638;28;20230;-50
2023/01/20 08:08:10;;;;;;;423.27;223.27;;;;;;;;;;5025331;28;20273;-50
2023/01/20 08:10:36;;;;;;;460.77;240.20;;;;;;;;;;4995003;28;20706;-51
2023/01/20 08:13:02;;;;;;;419.50;215.10;;;;;;;;;;5029400;28;20225;-50
2023/01/20 08:15:28;;;;;;;390.03;206.60;;;;;;;;;;5019783;28;20459;-50
2023/01/20 08:17:54;;;;;;;421.47;231.70;;;;;;;;;;5019309;28;20281;-50
2023/01/20 08:20:21;;;;;;;411.27;215.57;;;;;;;;;;5016135;28;20201;-51
2023/01/20 08:22:47;;;;;;;451.87;234.53;;;;;;;;;;5006951;28;20210;-50
2023/01/20 08:25:13;;;;;;;453.80;236.27;;;;;;;;;;5010708;28;20340;-50
2023/01/20 08:27:40;;;;;;;430.13;225.30;;;;;;;;;;5039460;28;20576;-50
2023/01/20 08:30:06;;;;;;;443.93;233.67;;;;;;;;;;5002860;28;20277;-50
2023/01/20 08:32:32;;;;;;;423.90;222.07;;;;;;;;;;4989389;28;20623;-50
2023/01/20 08:34:59;;;;;;;451.40;229.40;;;;;;;;;;4995766;28;20209;-50
2023/01/20 08:37:25;;;;;;;450.47;225.10;;;;;;;;;;4991132;28;20293;-50
2023/01/20 08:39:51;;;;;;;390.83;214.43;;;;;;;;;;5019364;28;20680;-50
2023/01/20 08:42:17;;;;;;;391.17;204.20;;;;;;;;;;5004865;28;20270;-50
2023/01/20 08:44:43;;;;;;;435.87;225.17;;;;;;;;;;4990909;28;20540;-50
2023/01/20 08:47:09;;;;;;;461.37;247.13;;;;;;;;;;4979751;28;20182;-50
2023/01/20 08:49:35;;;;;;;479.80;241.00;;;;;;;;;;5001625;28;20209;-50
2023/01/20 08:52:01;;;;;;;503.57;255.30;;;;;;;;;;4975837;28;20267;-49
2023/01/20 08:54:33;;;;;;;520.53;273.00;;;;;;;;;;4970451;28;20226;-50
2023/01/20 08:56:59;;;;;;;522.20;283.77;;;;;;;;;;4982616;28;20334;-50
2023/01/20 08:59:25;;;;;;;497.47;261.00;;;;;;;;;;4988767;28;20194;-50
2023/01/20 09:01:51;;;;;;;455.57;228.80;;;;;;;;;;5018450;28;20229;-50
2023/01/20 09:04:17;;;;;;;399.77;212.70;;;;;;;;;;4993325;28;20624;-50
2023/01/20 09:06:45;;;;;;;479.70;239.87;;;;;;;;;;4981979;28;20496;-50
2023/01/20 09:09:12;;;;;;;510.63;270.33;;;;;;;;;;4961135;28;20263;-49
2023/01/20 09:11:38;;;;;;;457.93;243.40;;;;;;;;;;4969330;28;20686;-50
2023/01/20 09:14:05;;;;;;;464.60;240.87;;;;;;;;;;4953485;28;21029;-51
2023/01/20 09:16:31;;;;;;;507.13;272.93;;;;;;;;;;4970964;28;20230;-50
2023/01/20 09:18:57;;;;;;;383.40;203.40;;;;;;;;;;4995947;28;20281;-51
2023/01/20 09:21:23;;;;;;;545.53;301.10;;;;;;;;;;4983908;28;20264;-50
2023/01/20 09:23:50;;;;;;;459.33;244.30;;;;;;;;;;4961811;28;20330;-50
2023/01/20 09:26:16;;;;;;;482.57;250.80;;;;;;;;;;5004707;28;20587;-51
2023/01/20 09:28:48;;;;;;;446.40;234.80;;;;;;;;;;4993912;28;20217;-50
2023/01/20 09:31:14;;;;;;;437.67;237.53;;;;;;;;;;4996810;28;20216;-50
2023/01/20 09:33:40;;;;;;;566.40;315.83;;;;;;;;;;4984057;28;20218;-50
2023/01/20 09:36:09;;;;;;;464.67;255.47;;;;;;;;;;4984555;28;20820;-50
2023/01/20 09:44:10;;;;;;;519.10;279.90;;;;;;;;;;4977507;28;20225;-50
2023/01/20 09:46:42;;;;;;;473.63;246.17;;;;;;;;;;4975932;28;20219;-50
2023/01/20 09:55:21;;;;;;;514.03;282.47;;;;;;;;;;4946397;28;20264;-50
2023/01/20 09:57:50;;;;;;;496.90;264.40;;;;;;;;;;4953542;28;20226;-51
2023/01/20 10:00:19;;;;;;;525.67;282.63;;;;;;;;;;4950878;28;20505;-51
2023/01/20 10:02:47;;;;;;;501.90;266.57;;;;;;;;;;4959115;28;20194;-50
2023/01/20 10:05:19;;;;;;;503.10;271.47;;;;;;;;;;4952296;28;20244;-50
2023/01/20 10:08:03;;;;;;;488.27;258.97;;;;;;;;;;4959032;28;20214;-50
2023/01/20 10:10:39;;;;;;;506.50;265.83;;;;;;;;;;4963065;28;20252;-50
2023/01/20 10:13:15;;;;;;;559.60;298.10;;;;;;;;;;4937959;28;20418;-50
2023/01/20 10:16:02;;;;;;;481.50;266.80;;;;;;;;;;4950274;28;20221;-50
2023/01/20 10:18:48;;;;;;;471.10;259.20;;;;;;;;;;4948326;28;21145;-50
2023/01/20 10:21:29;;;;;;;461.13;247.77;;;;;;;;;;4965205;28;20879;-50
2023/01/20 10:24:15;;;;;;;474.00;244.73;;;;;;;;;;4969396;28;20875;-50
2023/01/20 10:26:48;;;;;;;488.37;246.33;;;;;;;;;;4976645;28;20350;-51
2023/01/20 10:29:22;;;;;;;472.30;251.50;;;;;;;;;;4971684;28;20178;-50
2023/01/20 10:31:57;;;;;;;460.80;236.60;;;;;;;;;;4974923;28;20205;-50
2023/01/20 10:34:23;;;;;;;442.40;236.53;;;;;;;;;;4959425;28;20436;-51
2023/01/20 10:37:00;;;;;;;427.60;229.10;;;;;;;;;;4967444;28;20302;-50
2023/01/20 10:39:27;;;;;;;443.80;244.80;;;;;;;;;;4972990;28;20694;-50
2023/01/20 10:41:56;;;;;;;436.73;244.60;;;;;;;;;;4983433;28;20296;-50
2023/01/20 10:44:23;;;;;;;486.97;260.03;;;;;;;;;;4989327;28;20437;-50
2023/01/20 10:46:54;;;;;;;432.20;232.93;;;;;;;;;;4968380;28;20281;-52
2023/01/20 10:49:26;;;;;;;476.73;249.77;;;;;;;;;;4985841;28;20714;-51
2023/01/20 10:52:15;;;;;;;458.13;247.67;;;;;;;;;;4964862;28;20299;-50
2023/01/20 10:54:44;;;;;;;422.37;223.00;;;;;;;;;;4985779;28;20881;-50
2023/01/20 10:57:12;;;;;;;516.27;267.37;;;;;;;;;;4980945;28;20233;-50
2023/01/20 10:59:45;;;;;;;468.37;237.00;;;;;;;;;;4976326;28;20186;-51
2023/01/20 11:02:40;;;;;;;522.57;272.83;;;;;;;;;;4972397;28;20308;-51
2023/01/20 11:05:15;;;;;;;594.07;321.50;;;;;;;;;;4966801;28;20653;-50
2023/01/20 11:07:42;;;;;;;476.60;261.10;;;;;;;;;;4978475;28;20222;-51
2023/01/20 11:10:14;;;;;;;491.90;257.23;;;;;;;;;;4981412;28;20398;-51
2023/01/20 11:12:41;;;;;;;473.60;245.00;;;;;;;;;;4992807;28;20232;-50
2023/01/20 11:15:16;;;;;;;452.90;242.37;;;;;;;;;;4988340;28;20689;-50
2023/01/20 11:17:42;;;;;;;476.83;250.97;;;;;;;;;;4986687;28;20469;-50
2023/01/20 11:20:13;;;;;;;526.47;274.43;;;;;;;;;;4980409;28;20679;-49
2023/01/20 11:22:44;;;;;;;483.57;246.83;;;;;;;;;;4971593;28;20296;-48
2023/01/20 11:25:21;;;;;;;514.37;252.73;;;;;;;;;;4979312;28;20315;-48
2023/01/20 11:27:47;;;;;;;498.33;255.63;;;;;;;;;;5024514;28;20206;-49
2023/01/20 11:30:42;;;;;;;501.77;259.50;;;;;;;;;;4991504;28;20218;-51
2023/01/20 11:33:26;;;;;;;524.90;272.10;;;;;;;;;;4971323;28;21795;-50
2023/01/20 11:36:17;;;;;;;483.53;252.33;;;;;;;;;;5006793;28;20604;-50
2023/01/20 11:38:45;;;;;;;490.40;258.87;;;;;;;;;;4971141;28;20202;-50
2023/01/20 11:41:21;;;;;;;486.50;244.57;;;;;;;;;;5013758;28;20275;-50
2023/01/20 11:43:48;;;;;;;453.10;236.90;;;;;;;;;;5000957;28;20236;-51
2023/01/20 11:46:28;;;;;;;472.13;243.33;;;;;;;;;;5006050;28;20290;-50
2023/01/20 11:49:14;;;;;;;459.73;241.67;;;;;;;;;;4971737;28;20224;-50
2023/01/20 11:51:45;;;;;;;427.17;221.73;;;;;;;;;;4996691;28;20213;-52
2023/01/20 11:54:14;;;;;;;437.87;230.83;;;;;;;;;;4984109;28;20244;-50
2023/01/20 11:56:42;;;;;;;454.67;232.93;;;;;;;;;;4990088;28;20201;-50
2023/01/20 11:59:18;;;;;;;447.70;236.53;;;;;;;;;;5004307;28;20292;-50
2023/01/20 12:01:51;;;;;;;437.67;222.37;;;;;;;;;;4996979;28;20281;-50
2023/01/20 12:04:20;;;;;;;414.40;212.10;;;;;;;;;;5006710;28;20217;-50
2023/01/20 12:06:58;;;;;;;457.57;239.90;;;;;;;;;;4994689;28;20372;-51
2023/01/20 12:09:34;;;;;;;439.77;225.03;;;;;;;;;;4990183;28;20587;-50
2023/01/20 12:12:03;;;;;;;409.80;220.80;;;;;;;;;;4995402;28;20520;-50
2023/01/20 12:14:29;;;;;;;436.07;222.10;;;;;;;;;;4988457;28;20218;-50
2023/01/20 12:17:00;;;;;;;413.33;219.10;;;;;;;;;;4988372;28;20190;-50
2023/01/20 12:19:41;;;;;;;466.73;238.90;;;;;;;;;;5000163;28;20309;-51
2023/01/20 12:22:12;;;;;;;492.70;259.70;;;;;;;;;;4976385;28;21503;-50
2023/01/20 12:27:29;;;;;;;456.17;238.03;;;;;;;;;;4990400;28;21252;-51
2023/01/20 12:29:59;;;;;;;394.50;208.13;;;;;;;;;;4978225;28;20226;-50
2023/01/20 12:32:27;;;;;;;428.63;226.40;;;;;;;;;;4961269;28;20222;-51
2023/01/20 12:34:53;;;;;;;392.43;199.20;;;;;;;;;;5000443;28;20241;-50
2023/01/20 12:37:24;;;;;;;424.37;214.03;;;;;;;;;;5007199;28;20239;-51
2023/01/20 12:40:09;;;;;;;440.90;222.00;;;;;;;;;;5002272;28;20313;-51
2023/01/20 12:42:39;;;;;;;419.07;210.10;;;;;;;;;;4996791;28;20214;-51
2023/01/20 12:45:24;;;;;;;441.77;230.90;;;;;;;;;;4972752;28;20494;-49
2023/01/20 12:47:59;;;;;;;450.63;234.43;;;;;;;;;;4968797;28;20221;-49
2023/01/20 12:50:26;;;;;;;498.63;257.20;;;;;;;;;;4974291;28;20805;-51
2023/01/20 12:55:47;;;;;;;367.60;166.40;;;;;;;;;;4941832;28;20242;-50
2023/01/20 12:58:17;;;;;;;349.43;166.27;;;;;;;;;;4943807;28;20256;-51
2023/01/20 13:00:53;;;;;;;322.67;154.60;;;;;;;;;;4943550;28;20226;-50
2023/01/20 13:03:31;;;;;;;320.97;151.90;;;;;;;;;;4963174;28;20226;-51
2023/01/20 13:06:04;;;;;;;370.93;173.93;;;;;;;;;;5044144;28;20215;-50
2023/01/20 13:08:48;;;;;;;412.50;192.37;;;;;;;;;;5044489;28;20672;-51
2023/01/20 13:11:20;;;;;;;366.20;176.60;;;;;;;;;;5043814;28;20664;-50
2023/01/20 13:14:01;;;;;;;390.37;178.73;;;;;;;;;;5043212;28;20227;-51
2023/01/20 13:16:27;;;;;;;371.30;172.77;;;;;;;;;;5041412;28;20243;-51
2023/01/20 13:19:02;;;;;;;402.73;184.57;;;;;;;;;;5042506;28;20239;-50
2023/01/20 13:21:31;;;;;;;355.87;161.73;;;;;;;;;;5042448;28;20226;-50
2023/01/20 13:23:59;;;;;;;322.60;159.73;;;;;;;;;;5042151;28;20313;-50
2023/01/20 13:26:26;;;;;;;367.57;182.40;;;;;;;;;;5044684;28;20235;-50
2023/01/20 13:28:53;;;;;;;364.13;178.17;;;;;;;;;;5044105;28;20171;-51
2023/01/20 13:31:38;;;;;;;326.70;156.20;;;;;;;;;;5043630;28;20218;-51
2023/01/20 13:34:19;;;;;;;369.73;176.57;;;;;;;;;;5043532;28;20219;-50
2023/01/20 13:37:09;;;;;;;340.63;163.10;;;;;;;;;;5043800;28;20337;-50
2023/01/20 13:39:47;;;;;;;358.20;167.90;;;;;;;;;;5042523;28;20215;-50
2023/01/20 13:42:32;;;;;;;363.20;166.87;;;;;;;;;;5042424;28;20265;-50
2023/01/20 13:45:13;;;;;;;361.23;165.77;;;;;;;;;;5043649;28;20336;-51
2023/01/20 13:47:48;;;;;;;340.03;166.53;;;;;;;;;;5043899;28;20253;-50
2023/01/20 13:50:31;;;;;;;349.67;169.63;;;;;;;;;;5043562;28;20254;-50
2023/01/20 13:52:57;;;;;;;377.23;183.37;;;;;;;;;;5042720;28;20230;-50
2023/01/20 13:55:30;;;;;;;336.53;162.83;;;;;;;;;;5041174;28;20235;-50
2023/01/20 13:57:56;;;;;;;393.93;185.87;;;;;;;;;;5042897;28;20215;-50
2023/01/20 14:00:22;;;;;;;366.67;173.30;;;;;;;;;;5042165;28;20215;-51
2023/01/20 14:02:49;;;;;;;358.63;165.47;;;;;;;;;;5041249;28;20212;-50
2023/01/20 14:05:19;;;;;;;337.07;160.10;;;;;;;;;;5022245;28;20196;-50
2023/01/20 14:07:45;;;;;;;333.63;154.20;;;;;;;;;;5023638;28;20262;-50
2023/01/20 14:10:12;;;;;;;306.47;143.87;;;;;;;;;;5021639;28;20278;-50
2023/01/20 14:12:41;;;;;;;338.80;156.57;;;;;;;;;;5022197;28;20223;-51
2023/01/20 14:15:22;;;;;;;342.17;172.63;;;;;;;;;;5022422;28;20235;-51
2023/01/20 14:17:54;;;;;;;373.10;172.03;;;;;;;;;;5023305;28;20220;-50
2023/01/20 14:20:22;;;;;;;324.50;155.60;;;;;;;;;;5022895;28;20297;-50
2023/01/20 14:22:49;;;;;;;368.87;175.17;;;;;;;;;;5027933;28;20749;-51